Time;durP1;ratioP1;P1;durP2;ratioP2;P2;SDS_P1;SDS_P2;PMS_P1;PMS_P2;Temp;Humidity;BMP_temperature;BMP_pressure;BME280_temperature;BME280_humidity;BME280_pressure;Samples;Min_cycle;Max_cycle;Signal;HPM_P1;HPM_P2
2022/04/08 00:02:25;;;;;;;13.05;1.25;;;;;;;5.87;100.00;99414.50;4965905;28;20067;-78
2022/04/08 00:04:50;;;;;;;18.45;1.52;;;;;;;5.91;100.00;99420.53;4975631;28;20042;-78
2022/04/08 00:07:16;;;;;;;15.70;1.52;;;;;;;5.78;100.00;99419.84;4973474;28;20030;-78
2022/04/08 00:09:41;;;;;;;14.15;1.02;;;;;;;5.78;100.00;99420.69;4959642;28;20113;-77
2022/04/08 00:12:07;;;;;;;20.02;2.03;;;;;;;5.76;100.00;99422.69;4976408;28;20047;-78
2022/04/08 00:14:33;;;;;;;10.55;1.45;;;;;;;5.80;100.00;99426.84;4947239;29;20051;-78
2022/04/08 00:16:59;;;;;;;16.60;1.85;;;;;;;5.86;100.00;99428.22;4985168;28;20046;-78
2022/04/08 00:19:24;;;;;;;21.70;2.20;;;;;;;5.82;100.00;99427.63;4961403;28;20032;-78
2022/04/08 00:21:49;;;;;;;12.57;1.63;;;;;;;5.87;100.00;99443.50;4974947;28;20463;-78
2022/04/08 00:24:17;;;;;;;18.05;2.15;;;;;;;5.80;100.00;99448.59;4970058;28;20038;-78
2022/04/08 00:26:45;;;;;;;10.00;1.25;;;;;;;5.79;100.00;99448.72;4970023;28;20114;-78
2022/04/08 00:29:12;;;;;;;11.20;1.10;;;;;;;5.73;100.00;99447.38;4969866;28;20031;-78
2022/04/08 00:31:38;;;;;;;16.13;1.95;;;;;;;5.77;100.00;99464.28;4964218;28;20039;-78
2022/04/08 00:34:03;;;;;;;12.20;1.52;;;;;;;5.77;100.00;99467.00;4964731;28;20399;-78
2022/04/08 00:36:28;;;;;;;14.88;2.38;;;;;;;5.82;100.00;99462.03;4971885;28;20487;-77
2022/04/08 00:38:54;;;;;;;11.98;1.02;;;;;;;5.77;100.00;99467.88;4978187;28;20459;-78
2022/04/08 00:41:20;;;;;;;9.57;1.35;;;;;;;5.81;100.00;99471.19;4975753;28;20030;-78
2022/04/08 00:43:45;;;;;;;14.90;1.65;;;;;;;5.78;100.00;99476.88;4980042;28;20459;-78
2022/04/08 00:46:11;;;;;;;6.78;0.90;;;;;;;5.78;100.00;99480.44;4976598;28;20478;-77
2022/04/08 00:48:37;;;;;;;13.65;1.88;;;;;;;5.87;100.00;99478.81;4961290;28;20026;-78
2022/04/08 00:51:04;;;;;;;18.35;1.70;;;;;;;5.81;100.00;99485.63;4995562;28;20220;-78
2022/04/08 00:53:30;;;;;;;20.10;2.45;;;;;;;5.88;100.00;99491.41;4990993;28;20166;-78
2022/04/08 00:55:56;;;;;;;14.50;1.27;;;;;;;5.87;100.00;99489.69;4966270;28;20402;-77
2022/04/08 00:58:23;;;;;;;20.27;1.77;;;;;;;5.80;100.00;99485.75;4970664;28;20082;-78
2022/04/08 01:00:48;;;;;;;14.63;1.50;;;;;;;5.80;100.00;99491.19;4992228;28;20030;-78
2022/04/08 01:03:14;;;;;;;15.82;1.25;;;;;;;5.65;100.00;99488.72;4993479;28;20065;-78
2022/04/08 01:05:39;;;;;;;18.60;1.80;;;;;;;5.69;100.00;99506.50;4995980;28;20034;-78
2022/04/08 01:08:08;;;;;;;12.63;1.40;;;;;;;5.70;100.00;99510.06;4985551;28;20513;-78
2022/04/08 01:10:33;;;;;;;22.00;1.90;;;;;;;5.64;100.00;99518.69;4975373;28;20053;-78
2022/04/08 01:12:59;;;;;;;14.57;1.60;;;;;;;5.73;100.00;99517.13;4967614;28;20034;-78
2022/04/08 01:15:25;;;;;;;23.38;2.58;;;;;;;5.74;100.00;99516.13;4989417;28;20069;-78
2022/04/08 01:17:51;;;;;;;20.48;1.40;;;;;;;5.67;100.00;99523.88;4973444;28;20050;-78
2022/04/08 01:20:18;;;;;;;12.57;1.55;;;;;;;5.66;100.00;99524.91;4986692;28;20034;-78
2022/04/08 01:22:43;;;;;;;13.18;1.85;;;;;;;5.66;100.00;99530.34;4991974;28;20038;-78
2022/04/08 01:25:10;;;;;;;14.13;2.20;;;;;;;5.65;100.00;99536.75;4977545;28;20169;-78
2022/04/08 01:27:36;;;;;;;18.65;1.42;;;;;;;5.54;100.00;99526.72;4965073;28;20027;-78
2022/04/08 01:30:07;;;;;;;13.07;1.33;;;;;;;5.60;100.00;99534.38;4962895;28;20038;-78
2022/04/08 01:32:33;;;;;;;13.40;1.48;;;;;;;5.63;100.00;99539.56;4967500;28;20034;-78
2022/04/08 01:34:58;;;;;;;14.02;1.48;;;;;;;5.51;100.00;99532.41;4988853;28;20046;-78
2022/04/08 01:37:24;;;;;;;30.00;2.78;;;;;;;5.64;100.00;99549.47;4993597;28;20038;-78
2022/04/08 01:39:50;;;;;;;16.73;1.77;;;;;;;5.64;100.00;99543.16;4993564;28;20394;-78
2022/04/08 01:42:21;;;;;;;15.40;1.83;;;;;;;5.59;100.00;99548.09;4981059;28;20027;-78
2022/04/08 01:44:47;;;;;;;19.15;1.95;;;;;;;5.52;100.00;99547.72;4967620;28;20062;-78
2022/04/08 01:47:13;;;;;;;18.63;2.22;;;;;;;5.44;100.00;99531.16;4992338;28;20106;-78
2022/04/08 01:49:38;;;;;;;16.48;2.17;;;;;;;5.47;100.00;99549.94;4988747;28;20039;-77
2022/04/08 01:52:04;;;;;;;14.90;1.67;;;;;;;5.42;100.00;99550.28;4962696;28;20035;-78
2022/04/08 01:54:30;;;;;;;27.38;2.33;;;;;;;5.40;100.00;99548.69;4971876;28;20030;-78
2022/04/08 01:56:55;;;;;;;23.95;1.98;;;;;;;5.36;100.00;99555.34;4962982;28;20022;-78
2022/04/08 01:59:20;;;;;;;15.48;1.67;;;;;;;5.32;100.00;99563.72;4964482;28;20042;-78
2022/04/08 02:01:46;;;;;;;17.35;2.25;;;;;;;5.26;100.00;99566.94;4973264;28;20052;-78
2022/04/08 02:04:11;;;;;;;12.20;1.30;;;;;;;5.27;100.00;99565.06;4975056;28;20446;-78
2022/04/08 02:06:40;;;;;;;15.75;1.90;;;;;;;5.29;100.00;99569.38;4971492;28;20034;-77
2022/04/08 02:09:07;;;;;;;14.65;2.03;;;;;;;5.25;100.00;99576.03;4991136;28;20110;-78
2022/04/08 02:11:33;;;;;;;27.15;1.85;;;;;;;5.14;100.00;99571.44;4966139;28;20122;-77
2022/04/08 02:13:59;;;;;;;17.08;1.42;;;;;;;5.14;100.00;99585.00;4967056;28;20037;-77
2022/04/08 02:16:24;;;;;;;16.77;1.52;;;;;;;5.14;100.00;99590.44;4990872;28;20071;-77
2022/04/08 02:18:50;;;;;;;20.33;2.17;;;;;;;5.14;100.00;99589.56;4970877;28;20174;-78
2022/04/08 02:21:19;;;;;;;24.83;2.60;;;;;;;5.21;100.00;99600.81;4979610;28;20034;-77
2022/04/08 02:23:46;;;;;;;15.85;1.67;;;;;;;5.14;100.00;99582.28;4967878;28;20034;-78
2022/04/08 02:26:13;;;;;;;19.30;1.75;;;;;;;5.19;100.00;99602.78;4957378;28;20047;-77
2022/04/08 02:28:39;;;;;;;10.10;1.40;;;;;;;5.22;100.00;99599.84;4966805;28;20079;-77
2022/04/08 02:31:05;;;;;;;25.98;1.95;;;;;;;5.22;100.00;99594.41;4974489;28;20109;-77
2022/04/08 02:33:31;;;;;;;19.13;1.95;;;;;;;5.23;100.00;99593.41;4974791;28;20046;-78
2022/04/08 02:35:57;;;;;;;28.83;2.42;;;;;;;5.17;100.00;99597.47;4954302;28;20034;-77
2022/04/08 02:38:25;;;;;;;23.15;2.17;;;;;;;5.10;100.00;99607.06;4965012;28;20050;-78
2022/04/08 02:40:50;;;;;;;16.98;1.83;;;;;;;5.11;100.00;99600.66;4973576;28;20126;-78
2022/04/08 02:43:16;;;;;;;21.30;2.95;;;;;;;5.10;100.00;99605.22;4962616;28;20035;-78
2022/04/08 02:45:41;;;;;;;18.73;2.03;;;;;;;5.07;100.00;99607.31;4989000;28;20042;-77
2022/04/08 02:48:07;;;;;;;17.17;1.95;;;;;;;5.07;100.00;99601.88;4987074;28;20044;-77
2022/04/08 02:50:32;;;;;;;23.30;2.53;;;;;;;5.00;100.00;99606.03;4958923;28;20425;-77
2022/04/08 02:52:58;;;;;;;14.93;1.88;;;;;;;5.08;100.00;99612.63;4985880;28;20038;-78
2022/04/08 02:55:23;;;;;;;12.27;1.83;;;;;;;5.14;100.00;99619.41;4956909;28;20041;-77
2022/04/08 02:57:50;;;;;;;20.83;2.13;;;;;;;5.09;100.00;99611.63;4950402;28;20042;-78
2022/04/08 03:00:17;;;;;;;17.38;2.13;;;;;;;5.16;100.00;99617.44;4974338;28;20066;-77
2022/04/08 03:02:47;;;;;;;16.27;1.83;;;;;;;5.19;100.00;99613.63;4969587;28;20037;-78
2022/04/08 03:05:13;;;;;;;23.00;2.83;;;;;;;5.24;100.00;99612.28;4954104;28;20026;-78
2022/04/08 03:07:39;;;;;;;22.88;2.15;;;;;;;5.17;100.00;99610.19;4987303;28;20372;-78
2022/04/08 03:10:06;;;;;;;27.73;3.00;;;;;;;5.17;100.00;99621.91;4959074;28;20058;-78
2022/04/08 03:12:32;;;;;;;20.23;2.80;;;;;;;5.03;100.00;99613.94;4998359;28;20092;-78
2022/04/08 03:14:58;;;;;;;22.17;1.85;;;;;;;5.11;100.00;99619.66;4976614;28;20038;-78
2022/04/08 03:17:24;;;;;;;22.35;2.38;;;;;;;5.13;100.00;99618.56;4996215;28;20037;-78
2022/04/08 03:19:49;;;;;;;12.77;1.58;;;;;;;5.02;100.00;99612.19;4994737;28;20031;-78
2022/04/08 03:22:19;;;;;;;13.80;1.67;;;;;;;4.93;100.00;99622.75;4996025;28;20038;-78
2022/04/08 03:24:45;;;;;;;22.38;2.00;;;;;;;4.89;100.00;99632.13;4967735;28;20034;-78
2022/04/08 03:27:11;;;;;;;24.60;2.55;;;;;;;4.79;100.00;99622.97;4976688;28;20115;-78
2022/04/08 03:29:36;;;;;;;34.47;3.55;;;;;;;4.72;100.00;99627.09;4998198;28;20469;-78
2022/04/08 03:32:02;;;;;;;20.83;2.40;;;;;;;4.66;100.00;99636.56;4966072;28;20066;-78
2022/04/08 03:34:28;;;;;;;7.75;1.35;;;;;;;4.44;100.00;99634.56;4996410;28;20421;-78
2022/04/08 03:36:54;;;;;;;9.50;1.70;;;;;;;4.49;100.00;99643.22;4990367;28;20041;-77
2022/04/08 03:39:20;;;;;;;22.90;2.30;;;;;;;4.49;100.00;99640.50;4989449;28;20045;-78
2022/04/08 03:41:45;;;;;;;13.45;1.85;;;;;;;4.38;100.00;99651.28;4997097;28;20037;-78
2022/04/08 03:44:11;;;;;;;9.88;1.75;;;;;;;4.35;100.00;99652.38;4969656;28;20023;-78
2022/04/08 03:46:36;;;;;;;17.73;2.35;;;;;;;4.35;100.00;99655.09;4988802;28;20031;-78
2022/04/08 03:49:03;;;;;;;13.50;2.10;;;;;;;4.28;100.00;99647.50;4986316;28;20549;-78
2022/04/08 03:51:29;;;;;;;13.82;2.10;;;;;;;4.26;100.00;99647.63;4959352;28;20391;-78
2022/04/08 03:53:54;;;;;;;12.60;2.38;;;;;;;4.21;100.00;99647.97;4970535;28;20034;-77
2022/04/08 03:56:20;;;;;;;12.55;2.55;;;;;;;4.08;100.00;99635.41;4955266;28;20043;-78
2022/04/08 03:58:45;;;;;;;19.45;2.33;;;;;;;4.08;100.00;99648.94;4975859;28;20038;-78
2022/04/08 04:01:12;;;;;;;10.15;1.80;;;;;;;4.10;100.00;99647.00;4982683;28;20053;-78
2022/04/08 04:03:38;;;;;;;20.17;2.45;;;;;;;4.14;100.00;99648.50;4959507;28;20128;-78
2022/04/08 04:06:03;;;;;;;16.33;2.60;;;;;;;4.08;100.00;99651.66;4992768;28;20119;-77
2022/04/08 04:08:29;;;;;;;18.70;2.33;;;;;;;3.98;100.00;99644.19;4980292;28;20463;-77
2022/04/08 04:10:54;;;;;;;13.38;2.60;;;;;;;4.04;100.00;99661.84;4995552;28;20045;-77
2022/04/08 04:13:20;;;;;;;12.82;2.22;;;;;;;3.94;100.00;99663.50;4971508;28;20035;-81
2022/04/08 04:15:45;;;;;;;22.33;3.45;;;;;;;3.88;100.00;99653.09;4989852;28;20035;-77
2022/04/08 04:18:11;;;;;;;12.70;2.13;;;;;;;3.96;100.00;99646.13;4970316;28;20054;-77
2022/04/08 04:20:36;;;;;;;16.92;2.88;;;;;;;3.97;100.00;99650.59;4961723;28;20062;-77
2022/04/08 04:23:02;;;;;;;13.55;2.47;;;;;;;3.89;100.00;99661.09;4971168;28;20054;-77
2022/04/08 04:25:28;;;;;;;17.00;2.88;;;;;;;3.96;100.00;99654.25;4993342;28;20042;-77
2022/04/08 04:27:55;;;;;;;17.58;3.75;;;;;;;3.92;100.00;99654.59;4964070;28;20101;-77
2022/04/08 04:30:20;;;;;;;13.95;3.58;;;;;;;3.79;100.00;99647.34;4993104;28;20042;-77
2022/04/08 04:32:46;;;;;;;17.52;3.88;;;;;;;3.81;100.00;99650.81;4986237;28;20487;-77
2022/04/08 04:35:11;;;;;;;17.33;3.90;;;;;;;3.88;100.00;99647.66;4964355;28;20038;-77
2022/04/08 04:37:37;;;;;;;19.02;4.47;;;;;;;3.87;100.00;99654.94;4953330;28;20031;-77
2022/04/08 04:40:04;;;;;;;10.35;3.75;;;;;;;3.77;100.00;99646.59;4955625;28;20035;-77
2022/04/08 04:42:30;;;;;;;14.00;4.30;;;;;;;3.79;100.00;99650.06;4983638;28;20038;-77
2022/04/08 04:44:56;;;;;;;20.00;4.40;;;;;;;3.72;100.00;99654.16;4991457;28;20529;-77
2022/04/08 04:47:22;;;;;;;11.70;4.57;;;;;;;3.74;100.00;99662.16;4990051;28;20161;-77
2022/04/08 04:49:48;;;;;;;24.92;5.53;;;;;;;3.73;100.00;99666.72;4969287;28;20054;-77
2022/04/08 04:52:13;;;;;;;23.40;5.07;;;;;;;3.70;100.00;99645.28;4978673;28;20038;-76
2022/04/08 04:54:40;;;;;;;24.85;5.28;;;;;;;3.75;100.00;99661.19;4963381;28;20496;-77
2022/04/08 04:57:06;;;;;;;18.35;5.20;;;;;;;3.68;100.00;99658.06;4957545;28;20027;-78
2022/04/08 04:59:31;;;;;;;22.48;5.97;;;;;;;3.69;100.00;99659.81;4984331;28;20046;-77
2022/04/08 05:01:57;;;;;;;25.50;6.28;;;;;;;3.68;100.00;99666.19;4954883;28;20501;-77
2022/04/08 05:04:22;;;;;;;20.13;6.50;;;;;;;3.68;100.00;99669.75;4993745;28;20038;-77
2022/04/08 05:06:47;;;;;;;28.15;6.60;;;;;;;3.58;100.00;99656.97;4948903;28;20034;-76
2022/04/08 05:09:13;;;;;;;20.42;7.28;;;;;;;3.58;100.00;99659.69;4970940;28;20133;-76
2022/04/08 05:11:38;;;;;;;16.77;7.00;;;;;;;3.59;100.00;99658.69;4991700;28;20454;-76
2022/04/08 05:14:04;;;;;;;17.52;8.90;;;;;;;3.60;100.00;99660.44;4993405;28;20085;-77
2022/04/08 05:16:30;;;;;;;29.88;8.75;;;;;;;3.66;100.00;99654.59;4967344;28;20494;-76
2022/04/08 05:18:56;;;;;;;21.08;9.45;;;;;;;3.65;100.00;99648.31;4970051;28;20086;-76
2022/04/08 05:21:22;;;;;;;18.65;8.95;;;;;;;3.64;100.00;99652.00;4964716;28;20093;-77
2022/04/08 05:23:48;;;;;;;27.38;9.02;;;;;;;3.63;100.00;99657.53;4964734;28;20050;-76
2022/04/08 05:26:14;;;;;;;24.58;8.63;;;;;;;3.67;100.00;99659.03;4990878;28;20035;-76
2022/04/08 05:28:40;;;;;;;24.55;8.90;;;;;;;3.65;100.00;99656.41;4987040;28;20026;-76
2022/04/08 05:31:06;;;;;;;22.30;9.32;;;;;;;3.63;100.00;99652.97;4954635;28;20062;-76
2022/04/08 05:33:31;;;;;;;19.25;9.27;;;;;;;3.62;100.00;99659.38;4953722;28;20037;-78
2022/04/08 05:35:57;;;;;;;29.80;10.73;;;;;;;3.69;100.00;99659.81;4957282;28;20092;-77
2022/04/08 05:38:22;;;;;;;31.20;11.07;;;;;;;3.73;100.00;99666.72;4962516;28;20051;-77
2022/04/08 05:40:49;;;;;;;30.73;11.35;;;;;;;3.83;100.00;99661.53;4965008;28;20069;-77
2022/04/08 05:43:18;;;;;;;32.67;11.25;;;;;;;3.92;100.00;99643.75;4962452;28;20436;-79
2022/04/08 05:45:43;;;;;;;35.53;11.68;;;;;;;3.95;100.00;99643.53;4973230;28;20086;-76
2022/04/08 05:48:09;;;;;;;27.02;10.90;;;;;;;3.99;100.00;99650.47;4962069;28;20059;-77
2022/04/08 05:50:34;;;;;;;25.65;10.93;;;;;;;4.09;100.00;99643.44;4970327;28;20027;-78
2022/04/08 05:53:00;;;;;;;30.80;11.43;;;;;;;4.05;100.00;99636.50;4963208;28;20122;-77
2022/04/08 05:55:26;;;;;;;23.80;10.82;;;;;;;4.18;100.00;99631.03;4966391;28;20034;-77
2022/04/08 05:57:53;;;;;;;33.63;11.52;;;;;;;4.27;100.00;99638.53;4966081;28;20092;-77
2022/04/08 06:00:20;;;;;;;24.98;10.80;;;;;;;4.33;100.00;99639.91;4973980;28;20030;-77
2022/04/08 06:02:48;;;;;;;31.40;11.70;;;;;;;4.42;100.00;99631.97;4968944;28;20034;-78
2022/04/08 06:05:19;;;;;;;32.00;11.77;;;;;;;4.43;100.00;99624.72;4952686;28;20165;-77
2022/04/08 06:07:54;;;;;;;26.85;11.00;;;;;;;4.46;100.00;99626.31;4964483;28;20042;-77
2022/04/08 06:10:22;;;;;;;30.10;11.40;;;;;;;4.70;100.00;99621.78;4958992;28;20081;-77
2022/04/08 06:12:51;;;;;;;20.88;10.27;;;;;;;4.83;100.00;99634.44;4973641;28;20030;-78
2022/04/08 06:15:18;;;;;;;29.63;10.98;;;;;;;4.73;100.00;99623.41;4967453;28;20039;-77
2022/04/08 06:17:44;;;;;;;22.30;9.60;;;;;;;4.90;100.00;99633.88;4950806;28;20495;-77
2022/04/08 06:20:11;;;;;;;26.77;9.45;;;;;;;4.99;100.00;99631.44;4968081;28;20045;-77
2022/04/08 06:22:39;;;;;;;23.40;9.43;;;;;;;4.99;100.00;99631.44;4963948;28;20538;-78
2022/04/08 06:25:07;;;;;;;20.15;9.68;;;;;;;5.14;100.00;99622.13;4954952;28;20031;-78
2022/04/08 06:27:32;;;;;;;16.95;7.82;;;;;;;5.28;100.00;99634.63;4969247;28;20372;-78
2022/04/08 06:29:58;;;;;;;14.82;8.75;;;;;;;5.44;100.00;99628.88;4966842;28;20063;-78
2022/04/08 06:32:23;;;;;;;25.30;8.85;;;;;;;5.58;100.00;99638.69;4955200;28;20031;-78
2022/04/08 06:34:48;;;;;;;19.60;8.15;;;;;;;5.33;100.00;99638.72;4974106;28;20495;-79
2022/04/08 06:37:14;;;;;;;17.55;7.32;;;;;;;5.34;100.00;99635.03;4945475;28;20047;-83
2022/04/08 06:39:39;;;;;;;20.63;8.30;;;;;;;5.26;100.00;99642.91;4947638;28;20043;-78
2022/04/08 06:42:05;;;;;;;15.30;6.43;;;;;;;5.24;100.00;99649.41;4964599;28;20035;-78
2022/04/08 06:44:31;;;;;;;11.63;6.65;;;;;;;5.26;100.00;99632.06;4951435;28;20038;-77
2022/04/08 06:46:57;;;;;;;17.30;7.13;;;;;;;5.65;100.00;99640.78;4971762;28;20037;-77
2022/04/08 06:49:23;;;;;;;11.52;6.85;;;;;;;5.49;100.00;99630.28;4967209;28;20058;-77
2022/04/08 06:51:49;;;;;;;19.55;6.25;;;;;;;5.67;100.00;99629.78;4961929;28;20466;-77
2022/04/08 06:54:15;;;;;;;23.95;6.63;;;;;;;5.86;100.00;99618.34;4966367;28;20042;-77
2022/04/08 06:56:40;;;;;;;11.27;5.90;;;;;;;6.01;100.00;99625.28;4947938;28;20034;-77
2022/04/08 06:59:07;;;;;;;13.25;5.82;;;;;;;5.84;100.00;99612.19;4958656;28;20031;-77
2022/04/08 07:01:33;;;;;;;12.73;6.05;;;;;;;6.01;100.00;99619.88;4959079;28;20046;-77
2022/04/08 07:03:59;;;;;;;18.67;6.60;;;;;;;6.01;100.00;99622.56;4966967;28;20526;-78
2022/04/08 07:06:24;;;;;;;15.48;6.22;;;;;;;5.78;100.00;99623.53;4949740;29;20047;-77
2022/04/08 07:08:50;;;;;;;14.52;6.40;;;;;;;6.13;100.00;99620.72;4967205;28;20030;-78
2022/04/08 07:11:15;;;;;;;19.30;5.95;;;;;;;5.90;100.00;99622.53;4941892;29;20039;-78
2022/04/08 07:13:41;;;;;;;11.38;5.78;;;;;;;5.87;100.00;99628.22;4974551;28;20039;-77
2022/04/08 07:16:08;;;;;;;11.00;5.75;;;;;;;5.93;100.00;99630.44;4974808;28;20034;-80
2022/04/08 07:18:33;;;;;;;17.63;6.13;;;;;;;5.99;100.00;99629.13;4954595;28;20050;-77
2022/04/08 07:20:59;;;;;;;14.05;5.88;;;;;;;5.90;100.00;99617.09;4969987;28;20035;-79
2022/04/08 07:23:25;;;;;;;12.13;6.10;;;;;;;5.90;100.00;99627.97;4969897;28;20027;-78
2022/04/08 07:25:50;;;;;;;29.20;6.30;;;;;;;6.03;100.00;99619.75;4970652;28;20059;-79
2022/04/08 07:28:16;;;;;;;18.50;7.22;;;;;;;6.17;100.00;99618.66;4953143;28;20392;-80
2022/04/08 07:30:41;;;;;;;18.15;6.72;;;;;;;6.09;100.00;99611.09;4967555;28;20031;-79
2022/04/08 07:33:07;;;;;;;16.83;6.50;;;;;;;6.19;100.00;99608.50;4956311;28;20031;-78
2022/04/08 07:35:33;;;;;;;18.30;8.32;;;;;;;6.30;100.00;99611.22;4966090;28;20121;-78
2022/04/08 07:38:00;;;;;;;13.75;6.10;;;;;;;6.36;100.00;99615.28;4950034;28;20043;-79
2022/04/08 07:40:26;;;;;;;11.35;5.85;;;;;;;6.26;100.00;99620.59;4940987;29;20035;-79
2022/04/08 07:42:53;;;;;;;18.05;6.57;;;;;;;6.19;100.00;99622.94;4930389;29;20027;-79
2022/04/08 07:45:19;;;;;;;13.55;6.40;;;;;;;6.20;100.00;99627.41;4950222;29;20510;-79
2022/04/08 07:47:45;;;;;;;15.80;6.25;;;;;;;6.19;100.00;99619.38;4952004;29;20042;-79
2022/04/08 07:50:12;;;;;;;15.18;6.13;;;;;;;6.37;100.00;99617.88;4950010;29;20434;-79
2022/04/08 07:52:39;;;;;;;12.15;5.40;;;;;;;6.47;100.00;99619.84;4947365;28;20035;-79
2022/04/08 07:55:06;;;;;;;14.57;5.57;;;;;;;6.44;100.00;99612.78;4953189;28;20035;-80
2022/04/08 07:57:31;;;;;;;15.20;6.05;;;;;;;6.35;100.00;99600.84;4953104;29;20039;-80
2022/04/08 07:59:56;;;;;;;11.68;5.75;;;;;;;6.49;100.00;99606.97;4954661;29;20043;-80
2022/04/08 08:02:23;;;;;;;13.73;4.97;;;;;;;6.52;100.00;99601.28;4951283;29;20047;-80
2022/04/08 08:04:49;;;;;;;15.98;5.13;;;;;;;6.44;100.00;99599.19;4941693;29;20039;-80
2022/04/08 08:07:14;;;;;;;13.07;5.45;;;;;;;6.66;100.00;99601.03;4941466;29;20047;-79
2022/04/08 08:09:40;;;;;;;11.98;6.07;;;;;;;6.80;100.00;99608.91;4948664;29;20811;-80
2022/04/08 08:12:05;;;;;;;14.00;5.85;;;;;;;6.69;100.00;99600.78;4939578;29;20031;-80
2022/04/08 08:14:34;;;;;;;12.20;5.28;;;;;;;6.69;100.00;99594.44;4944952;29;20047;-80
2022/04/08 08:17:00;;;;;;;20.05;5.40;;;;;;;6.72;100.00;99589.63;4946453;29;20115;-81
2022/04/08 08:19:27;;;;;;;8.50;5.35;;;;;;;6.76;100.00;99591.09;4957520;29;20039;-81
2022/04/08 08:21:53;;;;;;;13.10;4.80;;;;;;;6.74;100.00;99600.34;4956447;29;20165;-81
2022/04/08 08:24:18;;;;;;;12.73;4.95;;;;;;;6.83;100.00;99602.31;4938529;29;20424;-80
2022/04/08 08:26:44;;;;;;;14.57;4.82;;;;;;;6.89;100.00;99598.25;4942610;29;20031;-80
2022/04/08 08:29:09;;;;;;;9.88;4.95;;;;;;;6.69;100.00;99599.88;4949834;29;20028;-81
2022/04/08 08:31:35;;;;;;;9.25;4.97;;;;;;;6.75;100.00;99589.34;4955275;29;20038;-79
2022/04/08 08:34:00;;;;;;;17.13;5.00;;;;;;;6.81;100.00;99588.84;4964099;28;20107;-80
2022/04/08 08:36:26;;;;;;;14.30;5.03;;;;;;;6.88;100.00;99582.91;4956375;29;20114;-81
2022/04/08 08:38:52;;;;;;;15.02;5.05;;;;;;;6.81;100.00;99594.28;4981474;28;20557;-80
2022/04/08 08:41:19;;;;;;;16.40;4.93;;;;;;;6.83;100.00;99577.84;4971347;28;20039;-80
2022/04/08 08:43:47;;;;;;;13.85;5.43;;;;;;;6.96;100.00;99589.41;4973364;28;20430;-80
2022/04/08 08:46:15;;;;;;;13.98;4.90;;;;;;;6.96;100.00;99586.69;4983739;28;20031;-81
2022/04/08 08:48:43;;;;;;;14.20;4.50;;;;;;;6.79;100.00;99579.97;4963278;28;20486;-80
2022/04/08 08:51:11;;;;;;;10.90;4.00;;;;;;;7.01;100.00;99572.69;4962372;28;20031;-82
2022/04/08 08:53:36;;;;;;;9.70;5.05;;;;;;;7.23;100.00;99566.28;4979344;28;20042;-79
2022/04/08 08:56:02;;;;;;;20.80;5.03;;;;;;;7.31;100.00;99563.78;4962821;28;20034;-80
2022/04/08 08:58:29;;;;;;;20.85;4.80;;;;;;;7.31;100.00;99565.59;4949724;28;20368;-80
2022/04/08 09:00:55;;;;;;;19.02;5.07;;;;;;;7.26;100.00;99551.53;4972210;28;20065;-78
2022/04/08 09:03:21;;;;;;;13.30;5.10;;;;;;;7.41;100.00;99549.34;4968929;28;20083;-79
2022/04/08 09:05:52;;;;;;;12.07;4.85;;;;;;;7.44;100.00;99543.63;4976753;28;20121;-79
2022/04/08 09:08:17;;;;;;;10.73;4.30;;;;;;;7.52;100.00;99538.38;4968885;28;20105;-80
2022/04/08 09:10:52;;;;;;;14.52;5.18;;;;;;;7.61;100.00;99542.13;4965060;28;20069;-80
2022/04/08 09:13:20;;;;;;;13.75;3.72;;;;;;;7.59;100.00;99538.69;4949331;28;20399;-79
2022/04/08 09:16:02;;;;;;;13.35;4.97;;;;;;;7.55;100.00;99527.22;4970046;28;20041;-81
2022/04/08 09:18:32;;;;;;;9.55;4.13;;;;;;;7.44;100.00;99527.28;4993922;28;20038;-82
2022/04/08 09:20:58;;;;;;;9.98;3.83;;;;;;;7.52;100.00;99524.75;4962761;28;20058;-82
2022/04/08 09:23:24;;;;;;;9.70;3.67;;;;;;;7.61;100.00;99533.97;4967644;28;20026;-84
2022/04/08 09:26:00;;;;;;;11.82;4.32;;;;;;;7.69;100.00;99535.03;4968276;28;20470;-79
2022/04/08 09:28:33;;;;;;;7.85;4.28;;;;;;;7.63;100.00;99538.28;4987410;28;20106;-82
2022/04/08 09:30:59;;;;;;;10.23;4.10;;;;;;;7.49;100.00;99536.78;4957034;28;20053;-81
2022/04/08 09:33:26;;;;;;;13.60;4.47;;;;;;;7.69;100.00;99529.59;4990961;28;20105;-81
2022/04/08 09:35:55;;;;;;;8.10;3.63;;;;;;;7.47;100.00;99522.44;4975417;28;20041;-82
2022/04/08 09:38:23;;;;;;;9.85;3.50;;;;;;;7.64;100.00;99529.13;4997286;28;20053;-81
2022/04/08 09:40:48;;;;;;;11.38;4.63;;;;;;;7.55;100.00;99522.63;4969977;28;20038;-79
2022/04/08 09:43:16;;;;;;;10.02;3.20;;;;;;;7.52;100.00;99522.03;4966187;28;20414;-79
2022/04/08 09:45:41;;;;;;;17.17;3.90;;;;;;;7.48;100.00;99510.53;4965057;28;20106;-80
2022/04/08 09:48:08;;;;;;;10.63;3.90;;;;;;;7.63;100.00;99510.19;4989249;28;20031;-80
2022/04/08 09:50:34;;;;;;;9.25;3.13;;;;;;;7.63;100.00;99513.78;4984863;28;20027;-79
2022/04/08 09:53:04;;;;;;;17.80;3.67;;;;;;;7.59;100.00;99520.50;4973017;28;20109;-81
2022/04/08 09:55:29;;;;;;;10.43;3.30;;;;;;;7.69;100.00;99524.13;4964130;28;20038;-80
2022/04/08 09:58:03;;;;;;;7.18;3.13;;;;;;;7.88;100.00;99514.31;4958798;28;20101;-79
2022/04/08 10:00:30;;;;;;;7.57;3.58;;;;;;;7.87;100.00;99518.91;4958195;28;20129;-80
2022/04/08 10:02:59;;;;;;;7.40;3.47;;;;;;;7.83;100.00;99509.25;4993244;28;20101;-80
2022/04/08 10:05:25;;;;;;;8.93;3.08;;;;;;;7.98;100.00;99525.25;4958256;28;20402;-80
2022/04/08 10:07:53;;;;;;;8.75;2.78;;;;;;;7.78;100.00;99516.16;4969938;28;20051;-80
2022/04/08 10:10:43;;;;;;;6.00;2.72;;;;;;;7.75;100.00;99519.13;4970388;28;20029;-81
2022/04/08 10:13:15;;;;;;;7.63;3.13;;;;;;;7.54;100.00;99518.19;4974864;28;20035;-81
2022/04/08 10:15:55;;;;;;;8.80;2.50;;;;;;;7.62;100.00;99511.19;4954178;28;20062;-80
2022/04/08 10:18:20;;;;;;;13.60;2.92;;;;;;;8.06;100.00;99520.81;4956971;28;20039;-80
2022/04/08 10:20:46;;;;;;;12.15;2.92;;;;;;;8.19;100.00;99512.41;4958036;28;20395;-81
2022/04/08 10:23:18;;;;;;;6.82;2.38;;;;;;;7.99;100.00;99519.66;4982039;28;20044;-79
2022/04/08 10:25:58;;;;;;;7.10;2.42;;;;;;;7.93;100.00;99514.75;4957526;28;20486;-82
2022/04/08 10:28:34;;;;;;;10.25;2.53;;;;;;;7.86;100.00;99517.16;4978755;28;20034;-80
2022/04/08 10:30:59;;;;;;;9.38;2.95;;;;;;;7.87;100.00;99509.84;4954132;28;20391;-80
2022/04/08 10:33:27;;;;;;;10.70;2.28;;;;;;;8.06;100.00;99514.50;4997648;28;20031;-79
2022/04/08 10:36:02;;;;;;;8.52;3.58;;;;;;;8.13;100.00;99504.75;4990559;28;20030;-79
2022/04/08 10:38:38;;;;;;;9.38;3.25;;;;;;;8.19;100.00;99509.66;4971563;28;20046;-81
2022/04/08 10:41:08;;;;;;;7.55;2.53;;;;;;;8.12;100.00;99499.44;4994851;28;20038;-80
2022/04/08 10:43:48;;;;;;;12.13;2.97;;;;;;;8.03;100.00;99498.44;4991827;28;20108;-80
2022/04/08 10:46:27;;;;;;;7.05;3.08;;;;;;;7.98;100.00;99490.66;4973264;28;20529;-79
2022/04/08 10:48:57;;;;;;;8.52;2.38;;;;;;;8.07;100.00;99491.72;4990212;28;20065;-78
2022/04/08 10:51:23;;;;;;;9.25;3.45;;;;;;;8.14;100.00;99487.41;4994698;28;20053;-79
2022/04/08 10:53:49;;;;;;;8.15;2.78;;;;;;;8.23;100.00;99491.16;4962500;28;20049;-78
2022/04/08 10:56:15;;;;;;;7.53;2.40;;;;;;;8.12;100.00;99492.16;4969528;28;20106;-79
2022/04/08 10:58:51;;;;;;;11.50;2.42;;;;;;;8.13;100.00;99487.56;4980389;28;20038;-79
2022/04/08 11:01:20;;;;;;;12.02;2.55;;;;;;;8.14;100.00;99492.03;4959363;28;20042;-80
2022/04/08 11:04:00;;;;;;;8.45;3.17;;;;;;;8.10;100.00;99495.03;4976618;28;20026;-79
2022/04/08 11:06:27;;;;;;;11.63;2.67;;;;;;;8.14;100.00;99490.16;4951102;28;20041;-79
2022/04/08 11:08:53;;;;;;;11.00;2.25;;;;;;;8.15;100.00;99482.81;4967939;28;20039;-79
2022/04/08 11:11:29;;;;;;;10.15;2.35;;;;;;;8.03;100.00;99476.63;4970819;28;20050;-78
2022/04/08 11:14:00;;;;;;;11.20;2.05;;;;;;;8.21;100.00;99479.53;4988975;28;20031;-78
2022/04/08 11:16:30;;;;;;;9.32;2.50;;;;;;;8.60;100.00;99468.72;4986370;28;20034;-79
2022/04/08 11:18:56;;;;;;;6.32;2.10;;;;;;;8.70;100.00;99466.84;4987339;28;20062;-78
2022/04/08 11:21:23;;;;;;;6.60;1.58;;;;;;;8.31;100.00;99466.78;4953673;28;20077;-79
2022/04/08 11:24:06;;;;;;;8.05;2.20;;;;;;;8.28;100.00;99465.22;4953144;28;20026;-79
2022/04/08 11:26:44;;;;;;;7.65;1.95;;;;;;;8.44;100.00;99452.91;4963995;28;20062;-80